Time;durP1;ratioP1;P1;durP2;ratioP2;P2;SDS_P1;SDS_P2;PMS_P1;PMS_P2;Temp;Humidity;BMP_temperature;BMP_pressure;BME280_temperature;BME280_humidity;BME280_pressure;Samples;Min_cycle;Max_cycle;Signal;HPM_P1;HPM_P2
2021/08/06 00:01:23;;;;;;;14.85;13.50;;;15.60;99.90;;;;;;5001888;28;20113;-61
2021/08/06 00:03:48;;;;;;;15.25;13.80;;;15.50;99.90;;;;;;5009797;28;20577;-61
2021/08/06 00:06:14;;;;;;;15.43;14.13;;;15.50;99.90;;;;;;5007278;28;20046;-62
2021/08/06 00:08:39;;;;;;;16.13;14.75;;;15.50;99.90;;;;;;4998824;28;20038;-61
2021/08/06 00:11:06;;;;;;;16.55;15.05;;;15.40;99.90;;;;;;5001800;28;20062;-61
2021/08/06 00:13:32;;;;;;;16.15;14.60;;;15.40;99.90;;;;;;5009366;28;20368;-62
2021/08/06 00:15:57;;;;;;;15.10;13.80;;;15.40;99.90;;;;;;5012938;28;20041;-60
2021/08/06 00:18:24;;;;;;;16.15;14.75;;;15.40;99.90;;;;;;5003765;28;20042;-59
2021/08/06 00:20:51;;;;;;;16.58;14.98;;;15.40;99.90;;;;;;5011195;28;20046;-59
2021/08/06 00:23:17;;;;;;;15.95;14.55;;;15.30;99.90;;;;;;5008424;28;20034;-60
2021/08/06 00:25:43;;;;;;;15.93;14.52;;;15.30;99.90;;;;;;5019755;28;20087;-59
2021/08/06 00:28:10;;;;;;;17.40;15.60;;;15.30;99.90;;;;;;5010035;28;20444;-59
2021/08/06 00:30:36;;;;;;;15.93;14.55;;;15.30;99.90;;;;;;5038838;28;20038;-59
2021/08/06 00:33:02;;;;;;;16.25;14.65;;;15.30;99.90;;;;;;5012917;28;20053;-59
2021/08/06 00:35:28;;;;;;;16.02;14.65;;;15.40;99.90;;;;;;5015481;28;20137;-59
2021/08/06 00:37:53;;;;;;;16.27;14.88;;;15.30;99.90;;;;;;4996365;28;20575;-59
2021/08/06 00:40:22;;;;;;;16.88;15.25;;;15.30;99.90;;;;;;5007998;28;20038;-59
2021/08/06 00:42:48;;;;;;;16.35;14.85;;;15.30;99.90;;;;;;5002515;28;20043;-60
2021/08/06 00:45:14;;;;;;;16.17;14.68;;;15.20;99.90;;;;;;5012829;28;20495;-60
2021/08/06 00:47:40;;;;;;;15.85;14.45;;;15.20;99.90;;;;;;5013632;28;20046;-60
2021/08/06 00:50:07;;;;;;;16.45;15.02;;;15.20;99.90;;;;;;4981264;28;20049;-60
2021/08/06 00:52:33;;;;;;;16.10;14.73;;;15.20;99.90;;;;;;4998980;28;20557;-60
2021/08/06 00:54:59;;;;;;;15.90;14.60;;;15.20;99.90;;;;;;5005703;28;20038;-61
2021/08/06 00:57:25;;;;;;;15.45;14.15;;;15.10;99.90;;;;;;5016867;28;20412;-60
2021/08/06 00:59:50;;;;;;;16.48;14.98;;;15.20;99.90;;;;;;5008137;28;20038;-61
2021/08/06 01:02:44;;;;;;;16.50;14.93;;;15.10;99.90;;;;;;5002655;28;20050;-61
2021/08/06 01:05:15;;;;;;;17.45;15.85;;;15.10;99.90;;;;;;5007084;28;20042;-60
2021/08/06 01:08:13;;;;;;;17.70;15.85;;;15.10;99.90;;;;;;5008139;28;20042;-60
2021/08/06 01:11:00;;;;;;;17.38;15.68;;;15.10;99.90;;;;;;5007994;28;20403;-61
2021/08/06 01:13:31;;;;;;;17.50;15.90;;;15.10;99.90;;;;;;5002006;28;20061;-61
2021/08/06 01:16:00;;;;;;;16.67;15.18;;;15.00;99.90;;;;;;5016171;28;20049;-61
2021/08/06 01:18:29;;;;;;;17.55;15.75;;;15.10;99.90;;;;;;5007863;28;20106;-60
2021/08/06 01:20:59;;;;;;;17.05;15.60;;;15.10;99.90;;;;;;5007785;28;20719;-61
2021/08/06 01:23:30;;;;;;;18.13;16.42;;;15.10;99.90;;;;;;5006272;28;20045;-61
2021/08/06 01:26:04;;;;;;;18.05;16.35;;;15.10;99.90;;;;;;5011278;28;20038;-60
2021/08/06 01:28:34;;;;;;;16.75;15.35;;;15.00;99.90;;;;;;5006436;28;20046;-60
2021/08/06 01:31:00;;;;;;;18.15;16.60;;;15.00;99.90;;;;;;5007165;28;20049;-60
2021/08/06 01:33:26;;;;;;;16.88;15.48;;;15.00;99.90;;;;;;5006088;28;20445;-61
2021/08/06 01:35:52;;;;;;;18.25;16.65;;;15.00;99.90;;;;;;5006918;28;20091;-60
2021/08/06 01:38:18;;;;;;;17.60;16.17;;;15.00;99.90;;;;;;5001867;28;20168;-60
2021/08/06 01:41:11;;;;;;;17.10;15.57;;;15.00;99.90;;;;;;5003650;28;20179;-60
2021/08/06 01:44:21;;;;;;;18.02;16.50;;;15.00;99.90;;;;;;5005292;28;20117;-60
2021/08/06 01:46:59;;;;;;;18.27;16.60;;;15.00;99.90;;;;;;5020321;28;20064;-60
2021/08/06 01:49:30;;;;;;;17.38;15.82;;;15.00;99.90;;;;;;5007479;28;20049;-60
2021/08/06 01:52:03;;;;;;;17.55;15.77;;;15.00;99.90;;;;;;5007965;28;20493;-60
2021/08/06 01:54:32;;;;;;;18.10;16.50;;;15.00;99.90;;;;;;4988210;28;20417;-60
2021/08/06 01:56:58;;;;;;;17.52;15.93;;;15.00;99.90;;;;;;5021137;28;20038;-60
2021/08/06 01:59:26;;;;;;;17.92;16.30;;;15.00;99.90;;;;;;5006362;28;20499;-61
2021/08/06 02:01:53;;;;;;;18.70;16.90;;;15.00;99.90;;;;;;5001906;28;20042;-63
2021/08/06 02:04:19;;;;;;;17.83;16.13;;;15.00;99.90;;;;;;5012204;28;20042;-61
2021/08/06 02:06:45;;;;;;;17.95;16.35;;;15.00;99.90;;;;;;5000446;28;20060;-60
2021/08/06 02:09:18;;;;;;;19.42;17.58;;;15.00;99.90;;;;;;4993680;28;20038;-60
2021/08/06 02:11:45;;;;;;;15.23;13.93;;;15.00;99.90;;;;;;5008565;28;20038;-61
2021/08/06 02:14:16;;;;;;;16.98;15.30;;;15.00;99.90;;;;;;5010853;28;20034;-61
2021/08/06 02:16:42;;;;;;;18.23;16.58;;;15.10;99.90;;;;;;5013522;28;20113;-61
2021/08/06 02:19:13;;;;;;;17.23;15.80;;;15.00;99.90;;;;;;5011048;28;20124;-60
2021/08/06 02:21:41;;;;;;;16.98;15.48;;;15.10;99.90;;;;;;4993055;28;20049;-60
2021/08/06 02:24:11;;;;;;;17.58;15.77;;;15.10;99.90;;;;;;5006940;28;20037;-60
2021/08/06 02:26:39;;;;;;;17.08;15.48;;;15.00;99.90;;;;;;5010062;28;20046;-64
2021/08/06 02:29:11;;;;;;;17.67;15.98;;;15.00;99.90;;;;;;5008257;28;20053;-62
2021/08/06 02:31:38;;;;;;;17.35;15.75;;;15.10;99.90;;;;;;5046660;28;20099;-61
2021/08/06 02:34:04;;;;;;;17.40;15.70;;;15.00;99.90;;;;;;5001765;28;20046;-60
2021/08/06 02:36:30;;;;;;;16.33;14.77;;;15.10;99.90;;;;;;5012706;28;20112;-61
2021/08/06 02:38:59;;;;;;;17.60;15.90;;;15.10;99.90;;;;;;5006285;28;20069;-60
2021/08/06 02:41:29;;;;;;;17.17;15.60;;;15.10;99.90;;;;;;5009456;28;20052;-60
2021/08/06 02:43:55;;;;;;;17.48;15.88;;;15.20;99.90;;;;;;5011015;28;20042;-60
2021/08/06 02:46:21;;;;;;;16.77;15.15;;;15.20;99.90;;;;;;5013236;28;20439;-60
2021/08/06 02:48:46;;;;;;;17.48;15.68;;;15.20;99.90;;;;;;5009997;28;20068;-60
2021/08/06 02:51:12;;;;;;;16.33;14.77;;;15.20;99.90;;;;;;5004952;28;20050;-61
2021/08/06 02:53:38;;;;;;;16.52;15.02;;;15.20;99.90;;;;;;4991713;28;20056;-60
2021/08/06 02:56:04;;;;;;;16.50;15.00;;;15.30;99.90;;;;;;4992030;28;20091;-60
2021/08/06 02:58:30;;;;;;;16.35;14.93;;;15.30;99.90;;;;;;5006735;28;20038;-61
2021/08/06 03:00:56;;;;;;;17.75;15.98;;;15.30;99.90;;;;;;5008255;28;20567;-60
2021/08/06 03:03:21;;;;;;;16.13;14.63;;;15.30;99.90;;;;;;5006040;28;20026;-61
2021/08/06 03:05:47;;;;;;;16.00;14.57;;;15.30;99.90;;;;;;5015358;28;20114;-61
2021/08/06 03:08:12;;;;;;;17.02;15.30;;;15.30;99.90;;;;;;5007630;28;20046;-60
2021/08/06 03:10:39;;;;;;;16.05;14.35;;;15.30;99.90;;;;;;4986394;28;20077;-60
2021/08/06 03:13:05;;;;;;;15.27;13.98;;;15.30;99.90;;;;;;5010334;28;20692;-60
2021/08/06 03:15:31;;;;;;;15.88;14.27;;;15.40;99.90;;;;;;5010440;28;20052;-61
2021/08/06 03:17:57;;;;;;;16.23;14.82;;;15.40;99.90;;;;;;4981626;28;20096;-61
2021/08/06 03:20:23;;;;;;;16.40;14.80;;;15.40;99.90;;;;;;5008523;28;20041;-60
2021/08/06 03:22:51;;;;;;;15.68;14.18;;;15.40;99.90;;;;;;5008645;28;20058;-61
2021/08/06 03:25:17;;;;;;;15.77;14.38;;;15.40;99.90;;;;;;5010934;28;20073;-60
2021/08/06 03:27:44;;;;;;;15.65;14.15;;;15.40;99.90;;;;;;5011355;28;20053;-60
2021/08/06 03:30:12;;;;;;;14.65;13.27;;;15.40;99.90;;;;;;5009991;28;20041;-60
2021/08/06 03:32:39;;;;;;;15.48;14.02;;;15.40;99.90;;;;;;5011506;28;20538;-60
2021/08/06 03:35:05;;;;;;;13.82;12.52;;;15.40;99.90;;;;;;5025721;28;20038;-60
2021/08/06 03:37:32;;;;;;;15.75;14.23;;;15.50;99.90;;;;;;4993707;28;20041;-61
2021/08/06 03:39:58;;;;;;;15.18;13.88;;;15.50;99.90;;;;;;5006362;28;20057;-61
2021/08/06 03:42:23;;;;;;;15.20;13.80;;;15.50;99.90;;;;;;5009566;28;20073;-60
2021/08/06 03:44:49;;;;;;;15.40;13.98;;;15.60;99.90;;;;;;5019560;28;20505;-61
2021/08/06 03:47:15;;;;;;;15.48;13.98;;;15.50;99.90;;;;;;5014238;28;20038;-61
2021/08/06 03:49:41;;;;;;;15.35;13.95;;;15.50;99.90;;;;;;5009261;28;20030;-61
2021/08/06 03:52:07;;;;;;;15.10;13.80;;;15.50;99.90;;;;;;5008947;28;20053;-60
2021/08/06 03:54:33;;;;;;;15.18;13.77;;;15.50;99.90;;;;;;5006231;28;20043;-61
2021/08/06 03:56:59;;;;;;;15.90;14.43;;;15.50;99.90;;;;;;5010644;28;20234;-61
2021/08/06 03:59:25;;;;;;;14.93;13.35;;;15.50;99.90;;;;;;5018836;28;20116;-61
2021/08/06 04:01:51;;;;;;;15.05;13.70;;;15.50;99.90;;;;;;5007579;28;20043;-61
2021/08/06 04:04:17;;;;;;;16.17;14.50;;;15.50;99.90;;;;;;4991354;28;20048;-61
2021/08/06 04:06:42;;;;;;;15.35;13.88;;;15.50;99.90;;;;;;5008585;28;20112;-61
2021/08/06 04:09:08;;;;;;;15.27;13.98;;;15.50;99.90;;;;;;5013316;28;20034;-61
2021/08/06 04:11:34;;;;;;;15.38;13.88;;;15.60;99.90;;;;;;5007169;28;20046;-61
2021/08/06 04:14:00;;;;;;;15.80;14.18;;;15.60;99.90;;;;;;5009477;28;20540;-61
2021/08/06 04:16:25;;;;;;;16.20;14.70;;;15.60;99.90;;;;;;4989853;28;20436;-61
2021/08/06 04:18:51;;;;;;;16.50;14.77;;;15.60;99.90;;;;;;4995352;28;20037;-61
2021/08/06 04:21:18;;;;;;;15.55;14.05;;;15.70;99.90;;;;;;5009146;28;20061;-61
2021/08/06 04:23:44;;;;;;;15.10;13.70;;;15.70;99.90;;;;;;5009377;28;20053;-61
2021/08/06 04:26:10;;;;;;;15.15;13.85;;;15.70;99.90;;;;;;5007935;28;20463;-61
2021/08/06 04:28:36;;;;;;;16.35;14.73;;;15.70;99.90;;;;;;5019304;28;20061;-61
2021/08/06 04:31:04;;;;;;;16.42;14.93;;;15.60;99.90;;;;;;5008132;28;20524;-61
2021/08/06 04:33:31;;;;;;;14.52;13.20;;;15.70;99.90;;;;;;5021323;28;20492;-61
2021/08/06 04:35:57;;;;;;;15.73;14.23;;;15.60;99.90;;;;;;5008047;28;20042;-62
2021/08/06 04:38:23;;;;;;;15.70;14.20;;;15.60;99.90;;;;;;5009636;28;20038;-61
2021/08/06 04:40:49;;;;;;;14.60;13.25;;;15.60;99.90;;;;;;5006466;28;20042;-61
2021/08/06 04:43:15;;;;;;;15.30;13.80;;;15.60;99.90;;;;;;5009694;28;20119;-61
2021/08/06 04:45:41;;;;;;;15.60;14.07;;;15.60;99.90;;;;;;5006399;28;20427;-61
2021/08/06 04:48:07;;;;;;;15.25;13.85;;;15.70;99.90;;;;;;4998461;28;20129;-61
2021/08/06 04:50:32;;;;;;;15.30;13.80;;;15.70;99.90;;;;;;5006567;28;20053;-61
2021/08/06 04:52:59;;;;;;;15.23;13.65;;;15.70;99.90;;;;;;5007908;28;20482;-61
2021/08/06 04:55:25;;;;;;;15.05;13.68;;;15.70;99.90;;;;;;5005251;28;20045;-61
2021/08/06 04:57:51;;;;;;;15.88;14.43;;;15.70;99.90;;;;;;5008246;28;20405;-61
2021/08/06 05:00:18;;;;;;;14.93;13.57;;;15.70;99.90;;;;;;5005099;28;20037;-61
2021/08/06 05:02:44;;;;;;;14.32;13.00;;;15.70;99.90;;;;;;5008073;28;20042;-62
2021/08/06 05:05:11;;;;;;;14.20;12.70;;;15.80;99.90;;;;;;5004477;28;20041;-62
2021/08/06 05:07:37;;;;;;;13.98;12.70;;;15.80;99.90;;;;;;5007343;28;20030;-61
2021/08/06 05:10:03;;;;;;;14.13;12.82;;;15.80;99.90;;;;;;5012225;28;20168;-61
2021/08/06 05:12:29;;;;;;;14.10;12.88;;;15.80;99.90;;;;;;5013341;28;20407;-61
2021/08/06 05:14:55;;;;;;;13.35;11.98;;;15.80;99.90;;;;;;4989557;28;20053;-61
2021/08/06 05:17:21;;;;;;;13.85;12.43;;;15.90;99.90;;;;;;5006157;28;20034;-61
2021/08/06 05:19:46;;;;;;;13.63;12.35;;;15.90;99.90;;;;;;5011037;28;20046;-61
2021/08/06 05:22:12;;;;;;;14.93;13.43;;;15.90;99.90;;;;;;5008062;28;20042;-61
2021/08/06 05:24:38;;;;;;;14.48;13.02;;;16.00;99.90;;;;;;4991213;28;20099;-61
2021/08/06 05:27:04;;;;;;;13.02;11.82;;;16.10;99.90;;;;;;4989730;28;20041;-61
2021/08/06 05:29:31;;;;;;;12.80;11.60;;;16.10;99.90;;;;;;5005778;28;20065;-61
2021/08/06 05:31:56;;;;;;;11.32;10.25;;;16.20;99.90;;;;;;5003958;28;20144;-61
2021/08/06 05:34:22;;;;;;;11.43;10.38;;;16.20;99.90;;;;;;5003934;28;20053;-62
2021/08/06 05:36:48;;;;;;;12.27;11.02;;;16.30;99.90;;;;;;5005851;28;20038;-61
2021/08/06 05:39:13;;;;;;;11.63;10.55;;;16.40;99.90;;;;;;5034833;28;20116;-61
2021/08/06 05:41:39;;;;;;;11.68;10.52;;;16.40;99.90;;;;;;5007370;28;20034;-61
2021/08/06 05:44:05;;;;;;;12.55;10.32;;;16.50;99.90;;;;;;5006984;28;20076;-61
2021/08/06 05:46:31;;;;;;;11.45;10.35;;;16.60;99.90;;;;;;5004808;28;20487;-61
2021/08/06 05:49:00;;;;;;;10.95;9.95;;;16.70;99.90;;;;;;4997583;28;20042;-61
2021/08/06 05:51:25;;;;;;;10.55;9.65;;;16.80;99.90;;;;;;5001960;28;20064;-61
2021/08/06 05:53:51;;;;;;;11.25;10.15;;;16.90;99.90;;;;;;5008373;28;20049;-61
2021/08/06 05:56:17;;;;;;;9.52;8.60;;;17.20;99.90;;;;;;5008222;28;20065;-61
2021/08/06 05:58:42;;;;;;;9.35;8.55;;;17.50;99.90;;;;;;4990838;28;20147;-61
2021/08/06 06:01:08;;;;;;;9.00;8.20;;;17.90;99.90;;;;;;5007179;28;20094;-61
2021/08/06 06:03:40;;;;;;;7.72;6.80;;;18.60;99.90;;;;;;5002145;28;20043;-62
2021/08/06 06:06:07;;;;;;;7.53;6.93;;;19.80;99.90;;;;;;4988725;28;20046;-60
2021/08/06 06:08:33;;;;;;;7.10;6.43;;;20.30;99.90;;;;;;4999339;28;20069;-60
2021/08/06 06:10:58;;;;;;;8.23;6.32;;;20.20;99.90;;;;;;5007388;28;20074;-61
2021/08/06 06:13:29;;;;;;;8.45;6.57;;;20.10;99.90;;;;;;5008231;28;20130;-60
2021/08/06 06:15:54;;;;;;;6.93;6.32;;;19.80;99.90;;;;;;5005814;28;20527;-60
2021/08/06 06:18:21;;;;;;;6.88;6.20;;;19.60;99.90;;;;;;4998291;28;20091;-61
2021/08/06 06:20:47;;;;;;;6.75;6.03;;;19.40;99.90;;;;;;5001934;28;20038;-61
2021/08/06 06:23:16;;;;;;;7.18;6.38;;;19.30;99.90;;;;;;4998657;28;20088;-60
2021/08/06 06:25:42;;;;;;;6.72;6.13;;;19.20;99.90;;;;;;5000603;28;20122;-61
2021/08/06 06:28:09;;;;;;;7.47;6.15;;;19.00;99.90;;;;;;5005899;28;20069;-62
2021/08/06 06:30:35;;;;;;;9.40;6.90;;;18.90;99.90;;;;;;4997058;28;20042;-63
2021/08/06 06:33:03;;;;;;;9.02;7.00;;;18.90;99.90;;;;;;5002909;28;20092;-61
2021/08/06 06:35:30;;;;;;;7.50;6.70;;;18.80;99.90;;;;;;5029833;28;20042;-61
2021/08/06 06:37:57;;;;;;;6.38;5.78;;;18.70;99.90;;;;;;5003038;28;20145;-60
2021/08/06 06:40:23;;;;;;;8.27;6.57;;;18.70;99.90;;;;;;5002584;28;20045;-62
2021/08/06 06:42:50;;;;;;;7.20;6.55;;;18.70;99.90;;;;;;4997019;28;20034;-61
2021/08/06 06:45:17;;;;;;;10.32;6.32;;;18.60;99.90;;;;;;5000649;28;20073;-61
2021/08/06 06:47:46;;;;;;;7.15;5.75;;;18.60;99.90;;;;;;4994822;28;20026;-61
2021/08/06 06:50:14;;;;;;;7.25;6.35;;;18.70;99.90;;;;;;5003587;28;20046;-61
2021/08/06 06:52:41;;;;;;;7.47;6.50;;;18.80;99.90;;;;;;5002816;28;20046;-61
2021/08/06 06:55:09;;;;;;;7.10;6.40;;;19.10;99.90;;;;;;4996210;28;20038;-61
2021/08/06 06:57:46;;;;;;;6.70;5.95;;;19.50;99.90;;;;;;5015735;28;20479;-61
2021/08/06 07:00:13;;;;;;;8.05;6.38;;;19.90;99.90;;;;;;5024455;28;20037;-61
2021/08/06 07:02:39;;;;;;;6.55;5.85;;;20.20;99.90;;;;;;5008649;28;20566;-62
2021/08/06 07:05:06;;;;;;;7.00;6.28;;;20.30;99.90;;;;;;5009506;28;20069;-61
2021/08/06 07:07:32;;;;;;;6.50;5.90;;;20.40;99.90;;;;;;5005713;28;20040;-61
2021/08/06 07:09:57;;;;;;;6.18;5.57;;;20.40;99.90;;;;;;5012894;28;20038;-61
2021/08/06 07:12:23;;;;;;;6.50;5.93;;;20.40;99.90;;;;;;5016907;28;20128;-61
2021/08/06 07:14:49;;;;;;;5.95;5.35;;;20.30;99.90;;;;;;5014420;28;20446;-61
2021/08/06 07:17:14;;;;;;;7.57;5.90;;;20.20;99.90;;;;;;5009853;28;20041;-61
2021/08/06 07:19:40;;;;;;;7.18;6.47;;;20.10;99.90;;;;;;5009829;28;20460;-61
2021/08/06 07:22:06;;;;;;;6.63;5.93;;;20.00;99.90;;;;;;5013332;28;20056;-61
2021/08/06 07:24:31;;;;;;;7.15;6.25;;;19.70;99.90;;;;;;5019341;28;20044;-61
2021/08/06 07:26:58;;;;;;;7.32;6.70;;;19.50;99.90;;;;;;5009787;28;20038;-61
2021/08/06 07:29:23;;;;;;;6.78;6.18;;;19.50;99.90;;;;;;4979703;28;20104;-61
2021/08/06 07:31:49;;;;;;;6.82;5.95;;;19.40;99.90;;;;;;5007149;28;20089;-61
2021/08/06 07:34:16;;;;;;;8.80;7.03;;;19.30;99.90;;;;;;5010815;28;20046;-61
2021/08/06 07:36:41;;;;;;;7.07;6.40;;;19.30;99.90;;;;;;5013516;28;20103;-61
2021/08/06 07:39:07;;;;;;;6.97;6.38;;;19.30;99.90;;;;;;5005150;28;20067;-61
2021/08/06 07:41:32;;;;;;;7.25;6.55;;;19.30;99.90;;;;;;4993222;28;20046;-61
2021/08/06 07:43:58;;;;;;;6.80;6.20;;;19.30;99.90;;;;;;5042350;28;20380;-61
2021/08/06 07:46:24;;;;;;;6.68;6.00;;;19.40;99.90;;;;;;5022816;23;20472;-67
2021/08/06 07:48:50;;;;;;;6.80;6.20;;;19.60;99.90;;;;;;5007400;28;20034;-67
2021/08/06 07:51:15;;;;;;;7.22;6.43;;;19.60;99.90;;;;;;4991636;28;20038;-67
2021/08/06 07:53:41;;;;;;;6.97;6.38;;;19.70;99.90;;;;;;5009580;28;20559;-67
2021/08/06 07:56:07;;;;;;;7.40;6.70;;;19.80;99.90;;;;;;5009766;28;20482;-67
2021/08/06 07:58:32;;;;;;;7.00;6.40;;;20.00;99.90;;;;;;5008110;28;20042;-67
2021/08/06 08:00:58;;;;;;;6.78;5.93;;;20.00;99.90;;;;;;5008762;28;20066;-66
2021/08/06 08:03:24;;;;;;;6.78;6.18;;;20.40;99.90;;;;;;4990643;28;20042;-67
2021/08/06 08:05:49;;;;;;;7.28;6.63;;;21.20;99.90;;;;;;5007409;28;20083;-67
2021/08/06 08:08:15;;;;;;;5.88;5.35;;;21.70;99.90;;;;;;5006817;28;20044;-67
2021/08/06 08:10:41;;;;;;;6.20;5.40;;;21.90;99.90;;;;;;5007592;28;20046;-67
2021/08/06 08:13:07;;;;;;;6.28;5.65;;;21.90;99.90;;;;;;4991260;28;20049;-67
2021/08/06 08:15:32;;;;;;;5.97;5.43;;;21.80;99.90;;;;;;5009544;28;20030;-66
2021/08/06 08:17:58;;;;;;;5.68;5.20;;;21.70;99.90;;;;;;5008711;28;20099;-67
2021/08/06 08:20:24;;;;;;;7.18;5.40;;;21.70;99.90;;;;;;5008019;28;20038;-66
2021/08/06 08:22:51;;;;;;;6.30;5.70;;;21.50;99.90;;;;;;5009121;28;20048;-66
2021/08/06 08:25:16;;;;;;;5.60;4.90;;;21.30;99.90;;;;;;5007980;28;20038;-66
2021/08/06 08:27:42;;;;;;;9.23;5.20;;;21.10;99.90;;;;;;5007595;28;20483;-67
2021/08/06 08:30:09;;;;;;;6.10;5.53;;;21.10;99.90;;;;;;5006514;28;20075;-67
2021/08/06 08:32:36;;;;;;;7.10;5.88;;;20.90;99.90;;;;;;4997315;28;20050;-67
2021/08/06 08:35:02;;;;;;;5.95;5.45;;;20.70;99.90;;;;;;5010679;28;20696;-66
2021/08/06 08:37:28;;;;;;;6.03;5.53;;;20.50;99.90;;;;;;5006854;28;20084;-66
2021/08/06 08:39:54;;;;;;;8.13;6.25;;;20.40;99.90;;;;;;5037993;28;20034;-66
2021/08/06 08:42:21;;;;;;;7.05;6.35;;;20.30;99.90;;;;;;5008043;28;20591;-65
2021/08/06 08:44:47;;;;;;;7.20;6.35;;;20.10;99.90;;;;;;5007279;28;20087;-65
2021/08/06 08:47:14;;;;;;;7.50;6.53;;;19.90;99.90;;;;;;5008480;28;20050;-66
2021/08/06 08:49:40;;;;;;;7.15;5.57;;;19.80;99.90;;;;;;5008381;28;20042;-66
2021/08/06 08:52:05;;;;;;;6.13;5.60;;;19.50;99.90;;;;;;5007758;28;20050;-66
2021/08/06 08:54:31;;;;;;;6.00;4.18;;;19.40;99.90;;;;;;4989837;28;20083;-67
2021/08/06 08:56:57;;;;;;;3.75;3.38;;;19.30;99.90;;;;;;5008087;28;20057;-67
2021/08/06 08:59:23;;;;;;;3.08;2.72;;;19.30;99.90;;;;;;5007922;28;20145;-66
2021/08/06 09:01:48;;;;;;;2.90;2.70;;;19.30;99.90;;;;;;5005612;28;20041;-66
2021/08/06 09:04:24;;;;;;;2.97;2.78;;;19.40;99.90;;;;;;4988962;28;20053;-67
2021/08/06 09:06:50;;;;;;;3.30;3.00;;;19.40;99.90;;;;;;5001497;28;20045;-66
2021/08/06 09:09:22;;;;;;;3.88;3.33;;;19.50;99.90;;;;;;5003164;28;20574;-67
2021/08/06 09:12:12;;;;;;;3.58;3.33;;;19.50;99.90;;;;;;5007938;28;20094;-66
2021/08/06 09:14:38;;;;;;;3.90;3.60;;;19.50;99.90;;;;;;5008021;28;20107;-65
2021/08/06 09:17:08;;;;;;;3.97;3.70;;;19.50;99.90;;;;;;4995515;28;20546;-65
2021/08/06 09:19:38;;;;;;;4.82;4.47;;;19.70;99.90;;;;;;5007331;28;20246;-66
2021/08/06 09:22:12;;;;;;;4.65;4.25;;;20.10;99.90;;;;;;5006959;28;20044;-66
2021/08/06 09:24:59;;;;;;;5.38;4.60;;;20.60;99.90;;;;;;5005784;28;20491;-65
2021/08/06 09:27:26;;;;;;;4.80;4.15;;;21.00;99.90;;;;;;5005968;28;20083;-65
2021/08/06 09:29:52;;;;;;;4.70;4.30;;;21.30;99.90;;;;;;5006759;28;20099;-65
2021/08/06 09:32:18;;;;;;;4.10;3.80;;;21.70;99.90;;;;;;5009342;28;20034;-65
2021/08/06 09:34:44;;;;;;;3.95;3.60;;;21.80;99.90;;;;;;5007730;28;20038;-65
2021/08/06 09:37:16;;;;;;;3.53;3.33;;;22.00;99.90;;;;;;5004894;28;20063;-66
2021/08/06 09:39:54;;;;;;;3.50;3.20;;;22.00;99.90;;;;;;5006167;28;20540;-65
2021/08/06 09:42:29;;;;;;;2.88;2.67;;;21.80;99.90;;;;;;5002296;28;20034;-65
2021/08/06 09:45:05;;;;;;;3.40;3.15;;;21.80;99.90;;;;;;5002175;28;20113;-66
2021/08/06 09:47:32;;;;;;;3.38;2.83;;;21.70;99.90;;;;;;4970884;28;1019100;-66
2021/08/06 09:50:00;;;;;;;3.13;2.80;;;21.40;99.90;;;;;;5008494;28;20040;-65
2021/08/06 09:52:37;;;;;;;3.67;3.38;;;21.30;99.90;;;;;;5007569;28;20478;-66
2021/08/06 09:55:05;;;;;;;3.35;3.15;;;21.20;99.90;;;;;;5007608;28;20037;-67
2021/08/06 09:57:31;;;;;;;2.97;2.78;;;21.10;99.90;;;;;;5007425;28;20041;-66
2021/08/06 09:59:58;;;;;;;3.40;3.10;;;20.90;99.90;;;;;;4994397;28;20034;-67
2021/08/06 10:02:30;;;;;;;3.65;2.35;;;20.80;99.90;;;;;;5003610;28;20082;-66
2021/08/06 10:04:58;;;;;;;2.17;2.03;;;20.60;99.90;;;;;;5007442;28;20087;-66
2021/08/06 10:07:25;;;;;;;2.03;1.90;;;20.50;99.90;;;;;;5006159;28;20429;-67
2021/08/06 10:09:51;;;;;;;2.22;1.92;;;20.60;99.90;;;;;;5008145;28;20117;-66
2021/08/06 10:12:17;;;;;;;2.22;2.10;;;20.50;99.90;;;;;;5006934;28;20130;-66
2021/08/06 10:14:42;;;;;;;3.50;2.10;;;20.40;99.90;;;;;;5007687;28;20061;-66
2021/08/06 10:17:10;;;;;;;2.10;1.90;;;20.50;99.90;;;;;;5004683;28;20475;-66
2021/08/06 10:19:36;;;;;;;2.70;2.20;;;20.80;99.90;;;;;;5007380;28;20120;-66
2021/08/06 10:22:03;;;;;;;2.55;1.73;;;21.00;99.90;;;;;;5008508;28;20045;-66
2021/08/06 10:24:30;;;;;;;2.25;2.05;;;21.30;99.90;;;;;;5011445;28;20095;-67
2021/08/06 10:26:55;;;;;;;2.42;2.20;;;21.50;99.90;;;;;;5009942;28;20430;-64
2021/08/06 10:29:22;;;;;;;2.50;2.28;;;21.60;99.90;;;;;;4993718;28;20091;-64
2021/08/06 10:32:12;;;;;;;2.78;2.10;;;21.80;99.90;;;;;;5008399;28;20446;-65
2021/08/06 10:35:00;;;;;;;2.42;2.28;;;22.10;99.90;;;;;;5008811;28;20050;-65
2021/08/06 10:37:58;;;;;;;2.28;1.98;;;22.30;99.90;;;;;;5001223;28;20108;-65
2021/08/06 10:40:37;;;;;;;2.50;2.25;;;22.50;99.90;;;;;;5009929;28;20033;-65
2021/08/06 10:43:09;;;;;;;2.42;2.22;;;22.60;99.90;;;;;;5011309;28;20038;-65
2021/08/06 10:45:47;;;;;;;2.33;2.13;;;22.70;99.90;;;;;;5010503;28;20083;-65
2021/08/06 10:48:31;;;;;;;1.85;1.75;;;22.80;99.90;;;;;;5010997;28;20135;-65
2021/08/06 10:51:15;;;;;;;2.10;1.90;;;22.90;99.90;;;;;;5009441;28;20069;-65
2021/08/06 10:53:49;;;;;;;2.65;2.05;;;23.20;99.90;;;;;;5010727;28;20562;-65
2021/08/06 10:56:18;;;;;;;2.03;1.92;;;23.30;99.90;;;;;;4992105;28;20042;-65
2021/08/06 10:58:50;;;;;;;3.65;1.88;;;23.30;99.90;;;;;;5011723;28;20034;-66
2021/08/06 11:01:34;;;;;;;2.55;1.75;;;23.20;99.90;;;;;;5009906;28;20038;-65
2021/08/06 11:04:21;;;;;;;1.90;1.80;;;23.00;99.90;;;;;;5006575;28;20046;-65
2021/08/06 11:06:47;;;;;;;2.58;2.10;;;22.80;99.90;;;;;;4991633;28;20050;-65
2021/08/06 11:09:25;;;;;;;2.40;2.20;;;22.60;99.90;;;;;;5009475;28;20492;-65
2021/08/06 11:11:52;;;;;;;2.00;1.80;;;22.60;99.90;;;;;;5010277;28;20067;-65
2021/08/06 11:14:32;;;;;;;3.30;2.22;;;22.70;99.90;;;;;;5010076;28;20037;-65
2021/08/06 11:17:14;;;;;;;2.40;2.15;;;23.10;99.90;;;;;;5009650;28;20038;-64
2021/08/06 11:20:09;;;;;;;2.20;2.00;;;23.40;99.90;;;;;;5010180;28;20038;-64
2021/08/06 11:22:38;;;;;;;2.50;2.30;;;23.70;99.90;;;;;;5010763;28;20550;-64
2021/08/06 11:25:10;;;;;;;2.83;2.40;;;23.80;99.90;;;;;;5009141;28;20049;-64
2021/08/06 11:27:41;;;;;;;2.60;2.40;;;23.70;99.90;;;;;;5010210;28;20046;-64
2021/08/06 11:30:11;;;;;;;2.75;2.42;;;23.70;99.90;;;;;;5010479;28;20100;-64
2021/08/06 11:32:59;;;;;;;1.60;1.50;;;23.60;99.90;;;;;;5009921;28;20351;-64
2021/08/06 11:35:30;;;;;;;2.55;1.42;;;23.50;99.90;;;;;;5009093;28;20499;-64
2021/08/06 11:37:58;;;;;;;2.35;2.00;;;23.40;99.90;;;;;;5009684;28;20414;-64
2021/08/06 11:40:30;;;;;;;2.45;2.13;;;23.30;99.90;;;;;;5008371;28;20038;-63
2021/08/06 11:42:56;;;;;;;3.47;2.55;;;23.20;99.90;;;;;;5008842;28;20052;-66
2021/08/06 11:45:28;;;;;;;3.28;2.60;;;23.00;99.90;;;;;;5010205;28;20034;-65
2021/08/06 11:48:02;;;;;;;2.80;2.60;;;23.00;99.90;;;;;;5010678;28;20045;-66
2021/08/06 11:50:39;;;;;;;3.15;2.90;;;23.10;99.90;;;;;;5006914;28;20379;-65
2021/08/06 11:53:16;;;;;;;7.72;2.72;;;23.40;99.90;;;;;;4990807;28;20042;-65
2021/08/06 11:55:43;;;;;;;3.08;2.78;;;23.70;99.90;;;;;;4973231;28;20117;-65
2021/08/06 11:58:09;;;;;;;3.15;2.85;;;23.70;99.90;;;;;;5007662;28;20033;-66
2021/08/06 12:00:37;;;;;;;3.83;2.88;;;23.60;99.90;;;;;;5009018;28;20061;-65
2021/08/06 12:03:08;;;;;;;4.13;2.60;;;23.60;99.90;;;;;;5003755;28;20121;-65
2021/08/06 12:05:37;;;;;;;5.95;3.28;;;23.50;99.90;;;;;;5006536;28;20124;-66
2021/08/06 12:08:33;;;;;;;3.35;2.88;;;23.40;99.90;;;;;;5009802;28;20034;-65
2021/08/06 12:11:05;;;;;;;3.22;2.92;;;23.10;99.90;;;;;;5011897;28;20057;-65
2021/08/06 12:13:32;;;;;;;3.53;3.17;;;23.00;99.90;;;;;;5009253;28;20828;-65
2021/08/06 12:16:12;;;;;;;6.43;3.45;;;22.90;99.90;;;;;;5009998;28;20038;-65
2021/08/06 12:18:45;;;;;;;3.22;2.92;;;22.90;99.90;;;;;;5009629;28;20034;-65
2021/08/06 12:21:32;;;;;;;3.63;3.33;;;23.10;99.90;;;;;;5009831;28;20045;-64
2021/08/06 12:24:04;;;;;;;4.38;3.22;;;23.50;99.30;;;;;;4990310;28;20423;-65
2021/08/06 12:26:33;;;;;;;3.03;2.65;;;23.70;99.20;;;;;;4990454;28;20038;-65
2021/08/06 12:29:12;;;;;;;3.75;2.85;;;23.90;99.40;;;;;;5008780;28;20034;-65
2021/08/06 12:31:56;;;;;;;4.68;3.80;;;23.80;99.80;;;;;;5009547;28;20073;-65
2021/08/06 12:34:28;;;;;;;4.30;3.25;;;23.90;99.00;;;;;;5007440;28;20425;-65
2021/08/06 12:37:09;;;;;;;4.28;2.83;;;23.80;99.60;;;;;;5007849;28;20456;-65
2021/08/06 12:39:53;;;;;;;5.13;3.42;;;23.70;99.80;;;;;;5008660;28;20092;-65
2021/08/06 12:42:31;;;;;;;3.80;3.05;;;23.80;99.10;;;;;;5007149;28;20703;-65
2021/08/06 12:45:03;;;;;;;3.88;3.28;;;23.80;99.20;;;;;;4988677;28;20476;-65
2021/08/06 12:47:40;;;;;;;5.45;3.30;;;23.60;98.90;;;;;;4973036;28;20123;-65